Weather at Salt Cay Airport

Public forecast

Using degrees Celsius for public forecast. Weather courtesy of forecast.io.

Closest aviation weather report (METAR) to Salt Cay Airport

Report is more than 2 hours old.

Closest report is JAGS McCartney International Airport, 7.4 nm (13.8 km) NNE.

2023/02/01 16:00 (retrieved 2 hours ago)

MBGT 011600Z 05012KT 9999 SCT012 SCT030 26/20 Q1022

Closest aviation forecast (TAF) to Salt Cay Airport

Closest forecast is Providenciales International Airport, 65.3 nm (120.9 km) WNW.

2023/02/01 18:18 (retrieved 0 seconds ago)

TAF MBPV 011630Z 0118/0218 07012KT 9999 SCT025 SCT040